Time;durP1;ratioP1;P1;durP2;ratioP2;P2;SDS_P1;SDS_P2;PMS_P1;PMS_P2;Temp;Humidity;BMP_temperature;BMP_pressure;BME280_temperature;BME280_humidity;BME280_pressure;Samples;Min_cycle;Max_cycle;Signal;HPM_P1;HPM_P2
2021/01/19 00:02:55;;;;;;;1.83;1.38;;;4.40;78.20;;;;;;6177321;28;20050;-77
2021/01/19 00:05:56;;;;;;;2.47;1.83;;;4.40;78.50;;;;;;6177412;28;20090;-77
2021/01/19 00:08:57;;;;;;;2.53;1.98;;;4.40;78.90;;;;;;6179035;28;20057;-77
2021/01/19 00:11:59;;;;;;;5.40;2.53;;;4.50;79.70;;;;;;6177472;28;20512;-77
2021/01/19 00:15:03;;;;;;;5.93;2.75;;;4.40;78.30;;;;;;6177210;28;20046;-77
2021/01/19 00:18:05;;;;;;;8.65;2.35;;;4.40;78.90;;;;;;6177562;28;20130;-77
2021/01/19 00:21:07;;;;;;;2.63;2.10;;;4.40;78.90;;;;;;6177379;28;20061;-77
2021/01/19 00:24:08;;;;;;;4.78;2.40;;;4.40;78.20;;;;;;6177018;28;20134;-77
2021/01/19 00:27:09;;;;;;;4.30;1.80;;;4.40;79.30;;;;;;6177687;28;20133;-78
2021/01/19 00:30:13;;;;;;;4.18;3.50;;;4.50;78.60;;;;;;6176958;28;20046;-77
2021/01/19 00:33:15;;;;;;;5.88;2.60;;;4.40;78.20;;;;;;6178863;28;20123;-77
2021/01/19 00:36:16;;;;;;;4.28;2.00;;;4.40;77.40;;;;;;6178142;28;20085;-77
2021/01/19 00:39:17;;;;;;;6.85;3.03;;;4.40;78.80;;;;;;6177885;28;20110;-78
2021/01/19 00:42:19;;;;;;;3.83;2.47;;;4.40;78.70;;;;;;6176686;28;20084;-77
2021/01/19 00:45:21;;;;;;;4.93;2.45;;;4.40;78.90;;;;;;6177331;28;20497;-77
2021/01/19 00:48:22;;;;;;;8.30;2.58;;;4.40;78.70;;;;;;6178439;28;20110;-77
2021/01/19 00:51:24;;;;;;;4.13;2.78;;;4.40;79.30;;;;;;6178184;28;20133;-77
2021/01/19 00:54:25;;;;;;;6.03;2.63;;;4.30;79.20;;;;;;6176959;28;20047;-77
2021/01/19 00:57:26;;;;;;;6.45;3.10;;;4.30;79.30;;;;;;6177031;28;20097;-77
2021/01/19 01:00:28;;;;;;;3.90;3.13;;;4.30;79.50;;;;;;6176308;28;20110;-77
2021/01/19 01:03:30;;;;;;;6.88;3.00;;;4.30;79.30;;;;;;6176327;28;20039;-77
2021/01/19 01:06:31;;;;;;;7.70;3.17;;;4.30;79.40;;;;;;6176753;28;20053;-77
2021/01/19 01:09:37;;;;;;;4.90;3.13;;;4.20;79.70;;;;;;6176883;28;20120;-77
2021/01/19 01:12:39;;;;;;;5.70;3.72;;;4.20;79.60;;;;;;6176248;28;20497;-77
2021/01/19 01:15:41;;;;;;;4.90;3.60;;;4.20;79.90;;;;;;6176060;28;20435;-77
2021/01/19 01:18:43;;;;;;;4.10;3.03;;;4.10;79.90;;;;;;6176066;28;20050;-77
2021/01/19 01:21:44;;;;;;;26.90;4.18;;;4.10;80.00;;;;;;6176124;28;20054;-78
2021/01/19 01:24:45;;;;;;;4.05;3.10;;;4.00;80.30;;;;;;6176689;28;20560;-76
2021/01/19 01:27:48;;;;;;;6.15;3.28;;;4.00;80.80;;;;;;6175644;28;20354;-77
2021/01/19 01:30:50;;;;;;;7.95;4.18;;;3.90;81.20;;;;;;6175841;28;20057;-76
2021/01/19 01:33:52;;;;;;;10.27;4.05;;;3.80;81.30;;;;;;6175391;28;20057;-77
2021/01/19 01:36:53;;;;;;;7.80;3.60;;;3.70;82.00;;;;;;6176269;28;20564;-77
2021/01/19 01:39:54;;;;;;;4.88;3.85;;;3.70;82.40;;;;;;6175703;28;20047;-77
2021/01/19 01:42:57;;;;;;;6.28;3.35;;;3.60;82.40;;;;;;6175557;28;20073;-77
2021/01/19 01:45:59;;;;;;;3.92;3.30;;;3.70;82.70;;;;;;6175608;28;20038;-77
2021/01/19 01:49:01;;;;;;;4.80;3.42;;;3.70;82.90;;;;;;6175721;28;20118;-77
2021/01/19 01:52:03;;;;;;;5.57;4.32;;;3.70;82.50;;;;;;6175318;28;20054;-77
2021/01/19 01:55:05;;;;;;;8.18;4.40;;;3.70;82.80;;;;;;6174710;28;20050;-77
2021/01/19 01:58:07;;;;;;;5.00;3.25;;;3.70;82.20;;;;;;6193433;28;20121;-77
2021/01/19 02:01:09;;;;;;;6.43;3.72;;;3.70;82.30;;;;;;6199688;28;20058;-77
2021/01/19 02:04:11;;;;;;;9.10;4.18;;;3.70;81.80;;;;;;6198275;28;20515;-77
2021/01/19 02:07:25;;;;;;;5.22;3.30;;;3.80;82.10;;;;;;6198682;28;20455;-77
2021/01/19 02:10:32;;;;;;;6.53;5.18;;;3.70;81.80;;;;;;6198812;28;20143;-77
2021/01/19 02:13:50;;;;;;;11.10;4.88;;;3.90;82.60;;;;;;6198875;28;20385;-77
2021/01/19 02:17:03;;;;;;;4.15;3.17;;;3.80;82.10;;;;;;6198892;28;20054;-75
2021/01/19 02:20:18;;;;;;;5.57;3.83;;;3.80;81.50;;;;;;6198522;28;20050;-76
2021/01/19 02:23:33;;;;;;;4.40;2.97;;;3.80;81.30;;;;;;6198214;28;20129;-75
2021/01/19 02:27:03;;;;;;;4.25;3.45;;;3.70;81.50;;;;;;6198213;28;20053;-76
2021/01/19 02:30:17;;;;;;;4.63;2.55;;;3.80;80.90;;;;;;6193272;28;20416;-76
2021/01/19 02:33:29;;;;;;;4.25;2.83;;;3.80;80.50;;;;;;6198479;28;20524;-76
2021/01/19 02:36:36;;;;;;;3.55;2.95;;;3.80;80.40;;;;;;6198159;28;20058;-76
2021/01/19 02:39:44;;;;;;;3.87;2.67;;;3.80;80.20;;;;;;6197868;28;20498;-76
2021/01/19 02:42:50;;;;;;;;;;;3.80;79.10;;;;;;6199111;28;20064;-76
2021/01/19 02:45:52;;;;;;;7.70;3.03;;;3.80;79.40;;;;;;6198390;28;20307;-76
2021/01/19 02:48:54;;;;;;;3.90;2.35;;;3.70;79.20;;;;;;6198859;28;20065;-76
2021/01/19 02:51:57;;;;;;;7.10;2.40;;;3.70;79.50;;;;;;6198076;28;20066;-77
2021/01/19 02:54:59;;;;;;;3.88;2.45;;;3.70;78.60;;;;;;6204963;28;20054;-76
2021/01/19 02:58:16;;;;;;;3.80;2.15;;;3.70;78.80;;;;;;6209311;28;20149;-75
2021/01/19 03:01:22;;;;;;;4.70;2.03;;;3.70;78.30;;;;;;6205017;28;20061;-76
2021/01/19 03:04:25;;;;;;;5.15;2.58;;;3.70;78.10;;;;;;6203029;28;20045;-76
2021/01/19 03:07:28;;;;;;;3.92;2.13;;;3.80;78.30;;;;;;6202661;28;20130;-76
2021/01/19 03:10:32;;;;;;;5.13;1.88;;;4.00;83.50;;;;;;6202641;28;20045;-76
2021/01/19 03:13:34;;;;;;;4.50;2.10;;;3.80;77.70;;;;;;6202837;28;20077;-76
2021/01/19 03:16:35;;;;;;;2.05;1.70;;;3.80;77.50;;;;;;6202326;28;20054;-76
2021/01/19 03:19:39;;;;;;;5.20;2.00;;;3.80;77.10;;;;;;6202716;28;20062;-76
2021/01/19 03:22:40;;;;;;;6.00;2.92;;;3.80;76.70;;;;;;6202277;28;20046;-76
2021/01/19 03:25:42;;;;;;;2.17;1.48;;;3.80;76.70;;;;;;6202242;28;20046;-76
2021/01/19 03:28:43;;;;;;;6.50;2.10;;;3.80;76.50;;;;;;6202922;28;20536;-75
2021/01/19 03:31:45;;;;;;;2.63;2.22;;;3.80;77.30;;;;;;6202132;28;20419;-76
2021/01/19 03:34:47;;;;;;;2.95;1.75;;;3.80;76.60;;;;;;6202629;28;20694;-76
2021/01/19 03:37:48;;;;;;;3.85;1.70;;;3.90;76.70;;;;;;6202291;28;20065;-76
2021/01/19 03:40:49;;;;;;;3.28;1.30;;;3.80;77.20;;;;;;6202285;28;20137;-76
2021/01/19 03:43:51;;;;;;;3.25;1.90;;;3.90;77.50;;;;;;6201668;28;20547;-76
2021/01/19 03:46:52;;;;;;;3.58;1.80;;;3.80;77.40;;;;;;6201488;28;20432;-76
2021/01/19 03:49:54;;;;;;;2.70;1.40;;;3.90;76.70;;;;;;6201737;28;20050;-75
2021/01/19 03:52:56;;;;;;;2.90;2.13;;;3.90;76.60;;;;;;6202316;28;20125;-75
2021/01/19 03:55:57;;;;;;;6.10;1.65;;;3.90;76.50;;;;;;6201730;28;20062;-75
2021/01/19 03:58:59;;;;;;;2.72;1.55;;;3.90;76.00;;;;;;6201688;28;20043;-76
2021/01/19 04:02:00;;;;;;;10.88;2.05;;;3.90;75.20;;;;;;6201613;28;20046;-75
2021/01/19 04:05:04;;;;;;;4.50;2.45;;;4.00;74.90;;;;;;6201556;28;20133;-76
2021/01/19 04:08:05;;;;;;;3.63;1.77;;;4.00;74.80;;;;;;6201658;28;20042;-76
2021/01/19 04:11:07;;;;;;;4.35;2.75;;;4.00;74.40;;;;;;6201970;28;20061;-76
2021/01/19 04:14:08;;;;;;;3.95;1.27;;;4.10;74.60;;;;;;6201337;28;20053;-75
2021/01/19 04:17:10;;;;;;;2.47;1.52;;;4.10;74.00;;;;;;6201944;28;20047;-76
2021/01/19 04:20:12;;;;;;;2.85;1.50;;;4.20;73.40;;;;;;6201159;28;20076;-76
2021/01/19 04:23:14;;;;;;;2.17;1.40;;;4.20;73.90;;;;;;6201195;28;20056;-76
2021/01/19 04:26:15;;;;;;;2.72;1.42;;;4.20;73.70;;;;;;6201546;28;20463;-75
2021/01/19 04:29:17;;;;;;;3.88;1.75;;;4.20;74.10;;;;;;6202404;28;20073;-75
2021/01/19 04:32:18;;;;;;;1.73;1.27;;;4.20;74.10;;;;;;6201101;28;20076;-75
2021/01/19 04:35:20;;;;;;;7.90;3.00;;;4.10;73.90;;;;;;6200875;28;20178;-76
2021/01/19 04:38:22;;;;;;;1.45;1.17;;;4.20;73.50;;;;;;6200914;28;20101;-76
2021/01/19 04:41:25;;;;;;;3.75;1.92;;;4.20;73.50;;;;;;6201497;28;20074;-75
2021/01/19 04:44:28;;;;;;;2.25;1.63;;;4.20;73.40;;;;;;6200529;28;20049;-75
2021/01/19 04:47:31;;;;;;;4.38;2.17;;;4.20;73.20;;;;;;6201680;28;20056;-76
2021/01/19 04:50:36;;;;;;;4.25;1.77;;;4.20;73.20;;;;;;6200706;28;20061;-75
2021/01/19 04:53:39;;;;;;;2.47;1.48;;;4.20;72.80;;;;;;6200345;28;20061;-76
2021/01/19 04:56:50;;;;;;;5.65;2.53;;;4.20;72.90;;;;;;6200510;28;20561;-75
2021/01/19 04:59:53;;;;;;;4.18;1.85;;;4.20;73.30;;;;;;6200277;28;20046;-76
2021/01/19 05:03:16;;;;;;;4.97;1.98;;;4.20;72.90;;;;;;6200166;28;20137;-76
2021/01/19 05:07:09;;;;;;;5.20;2.92;;;4.20;73.00;;;;;;6200493;28;20100;-76
2021/01/19 05:14:10;;;;;;;4.72;2.55;;;4.00;73.10;;;;;;6199574;28;20035;-76
2021/01/19 05:17:12;;;;;;;2.95;1.52;;;4.00;73.70;;;;;;6200449;28;20054;-76
2021/01/19 05:20:13;;;;;;;2.90;1.63;;;3.90;74.00;;;;;;6199752;28;20089;-76
2021/01/19 05:23:21;;;;;;;5.05;2.30;;;3.90;73.80;;;;;;6200808;28;20066;-76
2021/01/19 05:26:23;;;;;;;2.40;1.27;;;3.90;74.00;;;;;;6201098;28;20039;-76
2021/01/19 05:29:24;;;;;;;3.20;2.58;;;3.80;74.00;;;;;;6201418;28;20084;-76
2021/01/19 05:32:36;;;;;;;6.32;2.00;;;3.80;74.30;;;;;;6201339;28;20050;-76
2021/01/19 05:35:38;;;;;;;4.43;1.65;;;3.80;74.20;;;;;;6200012;28;20471;-76
2021/01/19 05:38:47;;;;;;;6.70;3.08;;;3.80;74.50;;;;;;6200999;28;20070;-77
2021/01/19 05:41:50;;;;;;;7.30;3.15;;;3.80;74.40;;;;;;6200604;28;20149;-75
2021/01/19 05:44:52;;;;;;;5.97;2.75;;;3.70;74.70;;;;;;6199787;28;20050;-76
2021/01/19 05:47:55;;;;;;;4.75;2.15;;;3.80;74.70;;;;;;6199180;28;20051;-76
2021/01/19 05:50:58;;;;;;;3.90;1.75;;;3.80;74.70;;;;;;6199122;28;20047;-77
2021/01/19 05:54:00;;;;;;;1.98;1.77;;;3.80;74.50;;;;;;6199066;28;20042;-76
2021/01/19 05:57:04;;;;;;;3.38;2.05;;;3.80;74.80;;;;;;6199584;28;20054;-75
2021/01/19 06:00:06;;;;;;;4.97;1.77;;;3.80;74.70;;;;;;6199467;28;20129;-76
2021/01/19 06:03:15;;;;;;;4.50;2.75;;;3.80;75.10;;;;;;6198990;28;20092;-75
2021/01/19 06:06:19;;;;;;;3.35;2.00;;;3.80;74.90;;;;;;6198259;28;20050;-75
2021/01/19 06:12:39;;;;;;;2.58;1.63;;;3.80;74.90;;;;;;6150641;28;20065;-76
2021/01/19 06:15:41;;;;;;;2.53;1.55;;;3.90;75.10;;;;;;6174209;28;20138;-76
2021/01/19 06:18:42;;;;;;;4.40;1.52;;;3.90;75.10;;;;;;6174806;28;20126;-75
2021/01/19 06:21:43;;;;;;;1.50;1.35;;;3.90;75.00;;;;;;6171463;28;20066;-74
2021/01/19 06:24:48;;;;;;;5.30;2.13;;;3.90;74.80;;;;;;6174464;28;20134;-75
2021/01/19 06:27:49;;;;;;;1.50;1.40;;;3.90;74.70;;;;;;6174148;28;20142;-76
2021/01/19 06:30:50;;;;;;;5.95;3.30;;;4.00;74.80;;;;;;6174658;28;20043;-76
2021/01/19 06:33:51;;;;;;;2.72;1.95;;;4.00;75.00;;;;;;6174234;28;20437;-76
2021/01/19 06:36:53;;;;;;;4.20;1.55;;;3.90;74.60;;;;;;6175659;28;20057;-76
2021/01/19 06:39:57;;;;;;;5.47;2.03;;;4.00;74.60;;;;;;6174361;28;20052;-76
2021/01/19 06:43:02;;;;;;;3.67;2.80;;;4.00;74.70;;;;;;6175076;28;20050;-76
2021/01/19 06:46:08;;;;;;;2.75;1.83;;;4.10;75.30;;;;;;6173757;28;20043;-76
2021/01/19 06:49:12;;;;;;;3.60;1.75;;;4.00;74.30;;;;;;6174891;28;20051;-75
2021/01/19 06:52:15;;;;;;;4.35;2.28;;;4.00;74.00;;;;;;6174273;28;20049;-76
2021/01/19 06:55:24;;;;;;;9.00;3.40;;;4.00;74.50;;;;;;6178641;28;20051;-76
2021/01/19 06:58:48;;;;;;;2.22;1.42;;;4.00;74.50;;;;;;6178179;28;20398;-75
2021/01/19 07:01:57;;;;;;;2.50;1.55;;;4.00;74.20;;;;;;6174136;28;20050;-75
2021/01/19 07:05:08;;;;;;;6.05;1.35;;;4.00;74.20;;;;;;6188264;28;20049;-76
2021/01/19 07:08:39;;;;;;;4.30;2.05;;;4.00;74.50;;;;;;6175826;28;20524;-75
2021/01/19 07:12:03;;;;;;;3.70;1.63;;;4.00;74.40;;;;;;6156959;28;20137;-77
2021/01/19 07:15:08;;;;;;;6.30;1.65;;;4.10;81.90;;;;;;6198999;28;20121;-76
2021/01/19 07:18:17;;;;;;;4.45;1.83;;;3.90;74.50;;;;;;6221451;28;20039;-74
2021/01/19 07:21:20;;;;;;;3.90;1.95;;;3.90;74.80;;;;;;6229204;28;20046;-75
2021/01/19 07:24:25;;;;;;;6.13;1.98;;;3.90;74.80;;;;;;6226213;28;20111;-75
2021/01/19 07:27:28;;;;;;;3.58;2.50;;;3.90;74.70;;;;;;6223903;28;20051;-74
2021/01/19 07:30:30;;;;;;;1.80;1.42;;;3.80;74.90;;;;;;6223867;28;20046;-75
2021/01/19 07:33:32;;;;;;;5.15;2.45;;;3.80;74.80;;;;;;6225399;28;20035;-75
2021/01/19 07:36:34;;;;;;;3.08;2.15;;;3.80;74.70;;;;;;6223770;28;20042;-75
2021/01/19 07:39:37;;;;;;;1.95;1.45;;;3.80;74.60;;;;;;6224286;28;20046;-75
2021/01/19 07:42:39;;;;;;;4.05;1.65;;;3.80;74.50;;;;;;6231568;28;20042;-76
2021/01/19 07:45:49;;;;;;;3.67;1.90;;;3.80;74.70;;;;;;6206828;28;20060;-75
2021/01/19 07:49:00;;;;;;;3.22;1.80;;;3.80;74.40;;;;;;6204703;28;20089;-75
2021/01/19 07:52:10;;;;;;;5.53;1.70;;;3.90;74.60;;;;;;6205196;28;20050;-77
2021/01/19 07:55:19;;;;;;;5.57;2.42;;;3.90;74.30;;;;;;6202814;28;20046;-76
2021/01/19 07:58:22;;;;;;;5.40;2.00;;;3.90;74.40;;;;;;6201928;28;20046;-76
2021/01/19 08:01:25;;;;;;;3.63;1.35;;;4.20;76.80;;;;;;6202153;28;20046;-76
2021/01/19 08:04:31;;;;;;;3.55;1.85;;;4.00;73.70;;;;;;6202054;28;20053;-76
2021/01/19 08:07:40;;;;;;;4.38;1.75;;;4.10;73.70;;;;;;6202059;28;20054;-76
2021/01/19 08:10:53;;;;;;;5.80;2.95;;;4.10;73.60;;;;;;6202465;28;20076;-76
2021/01/19 08:13:58;;;;;;;7.40;2.85;;;4.10;73.30;;;;;;6201480;28;20058;-76
2021/01/19 08:17:03;;;;;;;4.60;2.25;;;4.20;73.90;;;;;;6201913;28;20108;-77
2021/01/19 08:20:08;;;;;;;3.65;1.40;;;4.10;73.40;;;;;;6201379;28;20046;-76
2021/01/19 08:23:11;;;;;;;3.10;1.58;;;4.20;73.50;;;;;;6201196;28;20050;-76
2021/01/19 08:26:12;;;;;;;1.85;1.20;;;4.10;73.20;;;;;;6201077;28;20656;-77
2021/01/19 08:29:19;;;;;;;8.70;1.67;;;4.10;73.40;;;;;;6201864;28;20082;-76
2021/01/19 08:32:21;;;;;;;5.72;2.88;;;4.10;73.40;;;;;;6200900;28;20130;-76
2021/01/19 08:35:23;;;;;;;4.95;1.80;;;4.10;73.70;;;;;;6200640;28;20424;-76
2021/01/19 08:38:24;;;;;;;1.77;1.20;;;4.10;73.60;;;;;;6200865;28;20478;-77
2021/01/19 08:41:27;;;;;;;2.53;2.08;;;4.10;73.50;;;;;;6200949;28;20054;-76
2021/01/19 08:44:29;;;;;;;5.93;2.10;;;4.10;73.60;;;;;;6200333;28;20396;-76
2021/01/19 08:47:33;;;;;;;7.03;1.95;;;4.20;73.40;;;;;;6200634;28;20069;-76
2021/01/19 08:50:37;;;;;;;4.07;2.05;;;4.10;73.40;;;;;;6199842;28;20097;-76
2021/01/19 08:53:38;;;;;;;2.50;1.50;;;4.20;73.20;;;;;;6199157;28;20141;-76
2021/01/19 08:56:41;;;;;;;9.10;2.58;;;4.20;72.70;;;;;;6200359;28;20050;-76
2021/01/19 08:59:51;;;;;;;10.05;1.50;;;4.20;72.80;;;;;;6200604;28;20049;-77
2021/01/19 09:02:53;;;;;;;6.95;1.77;;;4.30;73.30;;;;;;6200219;28;20046;-77
2021/01/19 09:06:01;;;;;;;4.43;1.58;;;4.30;73.40;;;;;;6200364;28;20056;-75
2021/01/19 09:09:02;;;;;;;1.95;1.58;;;4.20;73.00;;;;;;6200313;28;20058;-76
2021/01/19 09:12:14;;;;;;;5.10;2.47;;;4.30;72.80;;;;;;6200017;28;20074;-76
2021/01/19 09:15:17;;;;;;;6.93;3.40;;;4.40;76.80;;;;;;6199333;28;20129;-76
2021/01/19 09:18:18;;;;;;;3.58;1.50;;;4.60;73.20;;;;;;6201150;28;20126;-78
2021/01/19 09:21:20;;;;;;;7.70;2.20;;;4.60;72.70;;;;;;6200529;28;20518;-77
2021/01/19 09:24:22;;;;;;;3.10;1.63;;;4.70;73.40;;;;;;6199942;28;20050;-77
2021/01/19 09:27:24;;;;;;;4.03;1.42;;;4.80;72.80;;;;;;6200928;28;20046;-78
2021/01/19 09:30:27;;;;;;;4.07;2.25;;;4.80;72.10;;;;;;6200178;28;20507;-77
2021/01/19 09:33:31;;;;;;;2.45;1.88;;;4.80;71.80;;;;;;6200076;28;20555;-77
2021/01/19 09:36:37;;;;;;;3.22;2.20;;;4.80;71.80;;;;;;6199935;28;20049;-78
2021/01/19 09:39:39;;;;;;;3.58;1.52;;;4.80;72.10;;;;;;6200367;28;20196;-77
2021/01/19 09:42:41;;;;;;;8.68;3.78;;;4.90;72.10;;;;;;6199923;28;20047;-77
2021/01/19 09:45:44;;;;;;;9.00;1.70;;;4.90;71.40;;;;;;6198916;28;20484;-77
2021/01/19 09:48:47;;;;;;;4.95;1.80;;;4.90;71.40;;;;;;6200207;28;20054;-77
2021/01/19 09:51:49;;;;;;;4.38;1.90;;;4.90;71.20;;;;;;6199983;28;20185;-76
2021/01/19 09:54:50;;;;;;;5.90;2.10;;;5.00;71.70;;;;;;6199681;28;20054;-76
2021/01/19 09:57:58;;;;;;;5.68;2.22;;;4.90;71.20;;;;;;6199817;28;20105;-77
2021/01/19 10:01:00;;;;;;;5.55;1.90;;;5.00;71.50;;;;;;6199486;28;20500;-77
2021/01/19 10:04:01;;;;;;;5.75;1.42;;;5.00;71.70;;;;;;6198359;28;20078;-76
2021/01/19 10:07:04;;;;;;;7.13;1.77;;;5.00;71.50;;;;;;6198945;28;20499;-77
2021/01/19 10:10:11;;;;;;;6.13;2.17;;;5.00;71.10;;;;;;6197226;28;20049;-76
2021/01/19 10:13:12;;;;;;;4.90;1.38;;;5.10;70.90;;;;;;6201122;28;20492;-77
2021/01/19 10:16:14;;;;;;;6.63;1.88;;;5.10;71.20;;;;;;6198487;28;20508;-77
2021/01/19 10:19:20;;;;;;;3.13;1.92;;;5.10;71.50;;;;;;6198719;28;20066;-77
2021/01/19 10:22:25;;;;;;;3.67;2.70;;;5.10;71.20;;;;;;6212750;28;20500;-76
2021/01/19 10:25:28;;;;;;;5.25;2.58;;;5.20;70.80;;;;;;6223705;28;20492;-77
2021/01/19 10:28:30;;;;;;;2.65;1.95;;;5.20;70.80;;;;;;6225109;28;20116;-77
2021/01/19 10:31:46;;;;;;;4.30;2.00;;;5.20;70.80;;;;;;6222978;28;20049;-77
2021/01/19 10:34:49;;;;;;;2.97;1.88;;;5.30;71.00;;;;;;6222194;28;20420;-77
2021/01/19 10:37:55;;;;;;;6.22;2.85;;;5.40;71.70;;;;;;6222676;28;20050;-75
2021/01/19 10:40:57;;;;;;;6.80;2.33;;;5.40;70.40;;;;;;6222955;28;20057;-77
2021/01/19 10:43:58;;;;;;;3.80;1.75;;;5.40;70.20;;;;;;6222337;28;20046;-76
2021/01/19 10:47:02;;;;;;;5.60;2.30;;;5.50;70.30;;;;;;6222185;28;20131;-76
2021/01/19 10:50:12;;;;;;;7.28;4.28;;;5.50;70.30;;;;;;6222521;28;20046;-78
2021/01/19 10:53:14;;;;;;;4.45;1.77;;;5.60;70.10;;;;;;6227210;28;20089;-77
2021/01/19 10:56:15;;;;;;;4.65;2.10;;;5.60;69.80;;;;;;6226796;28;20092;-77
2021/01/19 10:59:17;;;;;;;4.82;1.90;;;5.60;69.80;;;;;;6223086;28;20045;-77
2021/01/19 11:02:19;;;;;;;15.13;2.53;;;5.60;70.00;;;;;;6223460;28;20042;-76
2021/01/19 11:05:20;;;;;;;6.57;2.67;;;5.70;69.90;;;;;;6222242;28;20060;-77
2021/01/19 11:08:22;;;;;;;6.35;2.88;;;5.70;69.50;;;;;;6222859;28;20081;-78
2021/01/19 11:11:23;;;;;;;4.65;3.10;;;5.70;69.90;;;;;;6222223;28;20057;-77
2021/01/19 11:14:24;;;;;;;8.32;2.50;;;5.70;69.80;;;;;;6204465;28;20121;-76
2021/01/19 11:17:27;;;;;;;4.50;3.13;;;5.70;69.70;;;;;;6205470;28;20488;-76
2021/01/19 11:20:28;;;;;;;5.63;3.08;;;5.80;69.60;;;;;;6203210;28;20058;-77
2021/01/19 11:23:30;;;;;;;4.75;1.70;;;5.70;69.50;;;;;;6202025;28;20100;-77
2021/01/19 11:26:31;;;;;;;5.22;2.78;;;5.80;69.90;;;;;;6202099;28;20050;-77
2021/01/19 11:29:33;;;;;;;4.13;1.92;;;5.80;70.20;;;;;;6203438;28;20133;-77
2021/01/19 11:32:35;;;;;;;6.85;2.30;;;5.80;69.70;;;;;;6203801;28;20074;-77
2021/01/19 11:35:37;;;;;;;6.40;1.70;;;5.90;69.70;;;;;;6203112;28;20472;-77
2021/01/19 11:38:38;;;;;;;7.20;2.50;;;6.00;69.90;;;;;;6202510;28;20487;-77
2021/01/19 11:41:39;;;;;;;9.20;2.55;;;6.00;70.00;;;;;;6203126;28;20061;-78
2021/01/19 11:44:40;;;;;;;4.97;2.22;;;5.90;70.40;;;;;;6203992;28;20054;-78
2021/01/19 11:47:43;;;;;;;5.45;2.72;;;5.90;70.60;;;;;;6203563;28;20125;-77
2021/01/19 11:50:44;;;;;;;3.25;2.13;;;5.90;71.10;;;;;;6202622;28;20427;-77
2021/01/19 11:53:47;;;;;;;2.22;1.67;;;5.90;71.50;;;;;;6198659;28;20054;-75
2021/01/19 11:56:50;;;;;;;5.93;2.13;;;5.90;72.30;;;;;;6197560;28;20050;-76
2021/01/19 11:59:51;;;;;;;4.72;1.88;;;5.80;72.80;;;;;;6193507;28;20062;-78
2021/01/19 12:02:53;;;;;;;3.08;1.98;;;5.80;73.00;;;;;;6194585;28;20121;-76
2021/01/19 12:05:54;;;;;;;6.53;3.05;;;5.70;73.30;;;;;;6197820;28;20082;-77
2021/01/19 12:08:56;;;;;;;4.90;2.05;;;5.70;73.10;;;;;;6201666;28;20050;-77
2021/01/19 12:11:57;;;;;;;3.72;2.33;;;5.60;73.60;;;;;;6190778;28;20146;-78
2021/01/19 12:14:59;;;;;;;6.93;2.38;;;5.50;74.30;;;;;;6200582;28;20046;-77
2021/01/19 12:18:01;;;;;;;6.70;2.78;;;5.50;74.70;;;;;;6195818;28;20043;-77
2021/01/19 12:21:03;;;;;;;8.45;1.92;;;5.50;76.00;;;;;;6190915;28;20133;-77
2021/01/19 12:24:06;;;;;;;7.85;2.85;;;5.40;76.50;;;;;;6196839;28;20423;-77
2021/01/19 12:27:07;;;;;;;2.95;1.70;;;5.40;77.10;;;;;;6198416;28;20047;-76
2021/01/19 12:30:09;;;;;;;6.20;2.45;;;5.40;77.60;;;;;;6200498;28;20568;-77
2021/01/19 12:33:11;;;;;;;3.53;2.40;;;5.40;78.20;;;;;;6196149;28;20488;-76
2021/01/19 12:36:13;;;;;;;6.82;2.42;;;5.40;79.30;;;;;;6191481;28;20173;-78
2021/01/19 12:39:14;;;;;;;4.82;2.70;;;5.30;80.30;;;;;;6195587;28;20042;-76
2021/01/19 12:42:16;;;;;;;4.53;2.28;;;5.40;80.70;;;;;;6198694;28;20050;-76
2021/01/19 12:45:17;;;;;;;3.88;2.45;;;5.30;81.30;;;;;;6194771;28;20053;-78
2021/01/19 12:48:19;;;;;;;6.40;2.72;;;5.30;81.00;;;;;;6187712;28;20512;-78
2021/01/19 12:51:21;;;;;;;11.57;2.63;;;5.30;81.90;;;;;;6191155;28;20065;-77
2021/01/19 12:54:22;;;;;;;6.40;2.78;;;5.40;81.70;;;;;;6194091;28;20101;-77
2021/01/19 12:57:23;;;;;;;9.40;3.28;;;5.40;81.50;;;;;;6192421;28;20097;-77
2021/01/19 13:00:25;;;;;;;3.53;2.50;;;5.30;81.10;;;;;;6199623;28;20050;-77
2021/01/19 13:03:28;;;;;;;5.30;1.70;;;5.40;80.60;;;;;;6196036;28;20093;-77
2021/01/19 13:06:29;;;;;;;4.57;3.00;;;5.30;80.40;;;;;;6195417;28;20057;-76
2021/01/19 13:09:30;;;;;;;9.52;3.28;;;5.30;80.30;;;;;;6188970;28;20043;-77
2021/01/19 13:12:32;;;;;;;3.97;1.70;;;5.40;80.30;;;;;;6196893;28;20046;-77
2021/01/19 13:15:33;;;;;;;4.93;2.35;;;5.50;79.70;;;;;;6190799;28;20068;-77
2021/01/19 13:18:35;;;;;;;2.83;2.08;;;5.50;78.90;;;;;;6191330;28;20610;-77
2021/01/19 13:21:37;;;;;;;2.97;2.03;;;5.60;79.00;;;;;;6194452;28;20058;-77
2021/01/19 13:24:38;;;;;;;4.85;1.90;;;5.50;79.00;;;;;;6196377;28;20050;-77
2021/01/19 13:27:39;;;;;;;3.65;3.10;;;5.50;78.90;;;;;;6197182;28;20062;-77
2021/01/19 13:30:41;;;;;;;7.68;2.03;;;5.50;78.40;;;;;;6195184;28;20050;-77
2021/01/19 13:33:43;;;;;;;3.70;2.42;;;5.40;78.60;;;;;;6191136;28;20129;-77
2021/01/19 13:36:44;;;;;;;6.93;5.20;;;5.50;78.60;;;;;;6191179;28;20497;-78
2021/01/19 13:39:46;;;;;;;3.92;2.70;;;5.50;78.90;;;;;;6193019;28;20046;-77
2021/01/19 13:42:47;;;;;;;5.55;2.78;;;5.50;79.10;;;;;;6196480;28;20539;-78
2021/01/19 13:45:48;;;;;;;4.95;3.72;;;5.40;80.00;;;;;;6190797;28;20043;-77
2021/01/19 13:48:51;;;;;;;4.50;2.80;;;5.40;80.10;;;;;;6197004;28;20061;-77
2021/01/19 13:51:52;;;;;;;3.75;1.90;;;5.30;80.30;;;;;;6197805;28;20112;-77
2021/01/19 13:54:54;;;;;;;7.05;3.03;;;5.30;80.50;;;;;;6186539;28;20062;-78
2021/01/19 13:57:55;;;;;;;8.13;2.92;;;5.30;81.20;;;;;;6197831;28;20173;-77
2021/01/19 14:00:56;;;;;;;8.20;2.05;;;5.20;81.50;;;;;;6190624;28;20504;-77
2021/01/19 14:03:59;;;;;;;6.53;3.40;;;5.20;81.40;;;;;;6189834;28;20054;-78
2021/01/19 14:07:00;;;;;;;4.75;2.17;;;5.20;81.70;;;;;;6191127;28;20428;-78
2021/01/19 14:10:02;;;;;;;3.60;2.10;;;5.20;81.70;;;;;;6183295;28;20050;-78
2021/01/19 14:13:03;;;;;;;9.55;8.38;;;5.20;81.20;;;;;;6193743;28;20500;-76
2021/01/19 14:16:05;;;;;;;14.18;10.38;;;5.20;81.50;;;;;;6193561;28;20049;-77
2021/01/19 14:19:07;;;;;;;9.20;5.40;;;5.20;83.00;;;;;;6185983;28;20531;-76
2021/01/19 14:22:08;;;;;;;13.65;9.45;;;5.10;84.20;;;;;;6192478;28;20121;-77
2021/01/19 14:25:11;;;;;;;11.25;7.45;;;5.00;85.00;;;;;;6196895;28;20093;-76
2021/01/19 14:28:12;;;;;;;63.45;37.28;;;5.00;85.80;;;;;;6191652;28;20077;-77
2021/01/19 14:31:13;;;;;;;16.63;12.48;;;4.90;85.80;;;;;;6194513;28;20057;-77
2021/01/19 14:34:17;;;;;;;16.85;13.27;;;4.90;85.90;;;;;;6189637;28;20064;-77
2021/01/19 14:37:18;;;;;;;34.45;22.05;;;4.90;86.20;;;;;;6187391;28;20054;-77
2021/01/19 14:40:20;;;;;;;7.35;4.82;;;4.80;86.80;;;;;;6194692;28;20046;-76
2021/01/19 14:43:21;;;;;;;4.85;3.00;;;4.80;86.90;;;;;;6195030;28;20069;-77
2021/01/19 14:46:23;;;;;;;2.65;2.15;;;4.80;86.60;;;;;;6206339;28;20706;-77
2021/01/19 14:49:25;;;;;;;3.30;1.45;;;4.80;86.10;;;;;;6201764;28;20051;-77
2021/01/19 14:52:27;;;;;;;2.83;2.40;;;4.90;86.00;;;;;;6191658;28;20093;-77
2021/01/19 14:55:28;;;;;;;48.35;24.50;;;4.90;85.40;;;;;;6198299;28;20531;-77
2021/01/19 14:58:29;;;;;;;6.18;3.63;;;4.90;85.00;;;;;;6198243;28;20169;-77
2021/01/19 15:01:37;;;;;;;9.95;6.25;;;5.00;85.00;;;;;;6195141;28;20046;-77
2021/01/19 15:04:39;;;;;;;13.90;5.03;;;5.00;84.30;;;;;;6196684;28;20097;-76
2021/01/19 15:07:40;;;;;;;2.92;1.85;;;5.00;84.00;;;;;;6193988;28;20046;-77
2021/01/19 15:10:42;;;;;;;5.43;2.25;;;5.00;83.30;;;;;;6199760;28;20077;-77
2021/01/19 15:13:43;;;;;;;4.90;2.25;;;5.10;83.10;;;;;;6196471;28;20092;-77
2021/01/19 15:16:45;;;;;;;6.28;2.47;;;5.10;82.70;;;;;;6194315;28;20054;-77
2021/01/19 15:19:47;;;;;;;3.75;2.35;;;5.10;82.60;;;;;;6190137;28;20050;-77
2021/01/19 15:22:48;;;;;;;3.65;1.88;;;5.10;83.60;;;;;;6198993;28;20093;-77
2021/01/19 15:25:50;;;;;;;2.00;1.42;;;5.10;84.00;;;;;;6201397;28;20046;-76
2021/01/19 15:28:51;;;;;;;1.77;1.67;;;5.10;83.70;;;;;;6196922;28;20129;-76
2021/01/19 15:31:53;;;;;;;2.42;2.15;;;5.10;83.70;;;;;;6198612;28;20066;-77
2021/01/19 15:34:55;;;;;;;3.42;1.90;;;5.10;84.00;;;;;;6198543;28;20050;-76
2021/01/19 15:37:57;;;;;;;5.13;2.35;;;5.20;83.90;;;;;;6198889;28;20078;-77
2021/01/19 15:40:58;;;;;;;2.30;1.20;;;5.10;83.90;;;;;;6193645;28;20516;-77
2021/01/19 15:43:59;;;;;;;3.15;2.85;;;5.10;84.30;;;;;;6195904;28;20042;-77
2021/01/19 15:47:01;;;;;;;1.67;1.40;;;5.10;84.50;;;;;;6200812;28;20043;-76
2021/01/19 15:50:04;;;;;;;6.60;6.03;;;5.20;84.50;;;;;;6194970;28;20053;-76
2021/01/19 15:53:05;;;;;;;8.20;7.15;;;5.20;84.30;;;;;;6197703;28;20050;-77
2021/01/19 15:56:06;;;;;;;4.00;3.70;;;5.20;84.00;;;;;;6195452;28;20046;-77
2021/01/19 15:59:10;;;;;;;5.28;4.78;;;5.20;83.40;;;;;;6197744;28;20131;-77
2021/01/19 16:02:11;;;;;;;2.85;1.70;;;5.20;84.30;;;;;;6181832;28;20141;-77
2021/01/19 16:05:14;;;;;;;2.10;1.55;;;5.20;85.30;;;;;;6196822;28;20042;-77
2021/01/19 16:08:15;;;;;;;2.50;1.95;;;5.10;86.60;;;;;;6194896;28;20121;-76
2021/01/19 16:11:16;;;;;;;3.78;2.10;;;5.00;87.90;;;;;;6185642;28;20071;-77
2021/01/19 16:14:18;;;;;;;2.75;1.83;;;4.90;89.20;;;;;;6192122;28;20046;-76
2021/01/19 16:17:20;;;;;;;4.68;2.85;;;4.80;90.10;;;;;;6195875;28;20100;-77